createdAt,value
2017-08-15T00:01:52.927Z,14.90
2017-08-15T00:04:20.565Z,14.80
2017-08-15T00:06:48.975Z,14.80
2017-08-15T00:09:20.499Z,14.80
2017-08-15T00:11:48.904Z,14.80
2017-08-15T00:14:16.543Z,14.80
2017-08-15T00:16:44.921Z,14.70
2017-08-15T00:19:13.540Z,14.70
2017-08-15T00:21:41.134Z,14.80
2017-08-15T00:24:08.760Z,14.70
2017-08-15T00:26:37.388Z,14.70
2017-08-15T00:29:04.986Z,14.70
2017-08-15T00:31:32.575Z,14.70
2017-08-15T00:34:00.234Z,14.70
2017-08-15T00:36:28.894Z,14.80
2017-08-15T00:38:56.509Z,14.80
2017-08-15T00:41:24.129Z,14.90
2017-08-15T00:43:51.742Z,14.90
2017-08-15T00:46:19.692Z,14.90
2017-08-15T00:48:47.323Z,14.90
2017-08-15T00:51:14.932Z,14.90
2017-08-15T00:53:43.320Z,14.90
2017-08-15T00:56:11.297Z,14.90
2017-08-15T00:58:38.918Z,14.90
2017-08-15T01:01:06.552Z,14.90
2017-08-15T01:03:34.187Z,14.80
2017-08-15T01:06:01.783Z,14.70
2017-08-15T01:08:29.391Z,14.70
2017-08-15T01:10:58.746Z,14.80
2017-08-15T01:13:26.450Z,14.70
2017-08-15T01:15:54.089Z,14.80
2017-08-15T01:18:21.704Z,14.80
2017-08-15T01:20:50.119Z,14.80
2017-08-15T01:23:17.731Z,14.80
2017-08-15T01:25:45.678Z,14.80
2017-08-15T01:28:13.288Z,14.80
2017-08-15T01:30:41.808Z,14.70
2017-08-15T01:33:09.400Z,14.70
2017-08-15T01:35:37.017Z,14.60
2017-08-15T01:38:04.784Z,14.60
2017-08-15T01:40:33.152Z,14.50
2017-08-15T01:43:00.789Z,14.50
2017-08-15T01:45:28.387Z,14.50
2017-08-15T01:47:55.952Z,14.50
2017-08-15T01:50:24.368Z,14.30
2017-08-15T01:52:53.056Z,14.30
2017-08-15T01:55:21.400Z,14.40
2017-08-15T01:57:49.122Z,14.40
2017-08-15T02:00:16.739Z,14.30
2017-08-15T02:02:44.348Z,14.40
2017-08-15T02:05:11.968Z,14.40
2017-08-15T02:07:39.574Z,14.40
2017-08-15T02:10:08.341Z,14.40
2017-08-15T02:12:35.954Z,14.40
2017-08-15T02:15:03.514Z,14.40
2017-08-15T02:17:31.120Z,14.30
2017-08-15T02:19:58.712Z,14.30
2017-08-15T02:22:26.304Z,14.40
2017-08-15T02:24:54.207Z,14.40
2017-08-15T02:27:21.846Z,14.30
2017-08-15T02:29:49.507Z,14.30
2017-08-15T02:32:17.480Z,14.30
2017-08-15T02:34:45.085Z,14.30
2017-08-15T02:37:13.154Z,14.20
2017-08-15T02:39:40.796Z,14.20
2017-08-15T02:42:08.392Z,14.20
2017-08-15T02:44:36.009Z,14.30
2017-08-15T02:47:03.639Z,14.30
2017-08-15T02:49:31.271Z,14.30
2017-08-15T02:51:58.878Z,14.20
2017-08-15T02:54:26.520Z,14.20
2017-08-15T02:56:54.127Z,14.20
2017-08-15T02:59:22.523Z,14.10
2017-08-15T03:01:50.146Z,14.10
2017-08-15T03:04:18.592Z,14.00
2017-08-15T03:06:46.220Z,14.00
2017-08-15T03:09:14.599Z,14.00
2017-08-15T03:11:42.202Z,14.00
2017-08-15T03:14:09.877Z,14.00
2017-08-15T03:16:37.513Z,14.00
2017-08-15T03:19:05.104Z,14.00
2017-08-15T03:21:32.752Z,14.00
2017-08-15T03:24:00.432Z,13.90
2017-08-15T03:26:28.053Z,13.90
2017-08-15T03:28:55.675Z,13.90
2017-08-15T03:31:23.317Z,13.80
2017-08-15T03:33:51.710Z,13.80
2017-08-15T03:36:20.368Z,13.70
2017-08-15T03:38:48.001Z,13.70
2017-08-15T03:41:15.625Z,13.70
2017-08-15T03:43:44.002Z,13.70
2017-08-15T03:46:12.409Z,13.70
2017-08-15T03:48:40.076Z,13.60
2017-08-15T03:51:08.162Z,13.70
2017-08-15T03:53:36.253Z,13.60
2017-08-15T03:56:03.921Z,13.60
2017-08-15T03:58:31.528Z,13.60
2017-08-15T04:00:59.952Z,13.60
2017-08-15T04:03:27.817Z,13.60
2017-08-15T04:05:55.684Z,13.70
2017-08-15T04:08:23.306Z,13.80
2017-08-15T04:10:50.917Z,13.90
2017-08-15T04:13:18.570Z,13.90
2017-08-15T04:15:46.229Z,13.80
2017-08-15T04:18:14.610Z,13.80
2017-08-15T04:20:43.021Z,13.80
2017-08-15T04:23:10.734Z,13.80
2017-08-15T04:25:38.345Z,13.80
2017-08-15T04:28:06.027Z,13.80
2017-08-15T04:30:33.721Z,13.80
2017-08-15T04:33:01.349Z,13.80
2017-08-15T04:35:28.980Z,13.80
2017-08-15T04:37:56.629Z,13.80
2017-08-15T04:40:24.271Z,13.80
2017-08-15T04:42:51.904Z,13.80
2017-08-15T04:45:19.530Z,13.90
2017-08-15T04:47:47.169Z,13.90
2017-08-15T04:50:14.765Z,14.00
2017-08-15T04:52:42.413Z,14.10
2017-08-15T04:55:10.075Z,14.10
2017-08-15T04:57:39.270Z,14.20
2017-08-15T05:00:06.924Z,14.30
2017-08-15T05:02:34.593Z,14.40
2017-08-15T05:05:02.231Z,14.50
2017-08-15T05:07:29.880Z,14.60
2017-08-15T05:09:58.280Z,14.80
2017-08-15T05:12:25.892Z,14.80
2017-08-15T05:14:53.538Z,14.90
2017-08-15T05:17:21.172Z,15.00
2017-08-15T05:19:49.562Z,15.20
2017-08-15T05:22:17.199Z,15.10
2017-08-15T05:24:44.811Z,15.30
2017-08-15T05:27:12.508Z,15.40
2017-08-15T05:29:40.201Z,15.40
2017-08-15T05:32:07.800Z,15.50
2017-08-15T05:34:36.406Z,15.60
2017-08-15T05:37:03.985Z,15.70
2017-08-15T05:39:31.930Z,15.90
2017-08-15T05:42:00.305Z,16.10
2017-08-15T05:44:28.709Z,16.30
2017-08-15T05:46:56.369Z,16.30
2017-08-15T05:49:23.953Z,16.40
2017-08-15T05:51:51.553Z,16.50
2017-08-15T05:54:19.133Z,16.60
2017-08-15T05:56:46.716Z,16.80
2017-08-15T05:59:15.131Z,17.00
2017-08-15T06:01:42.732Z,17.00
2017-08-15T06:04:11.351Z,17.10
2017-08-15T06:06:39.717Z,17.30
2017-08-15T06:09:07.436Z,17.30
2017-08-15T06:11:35.104Z,17.40
2017-08-15T06:14:02.744Z,17.50
2017-08-15T06:16:31.399Z,17.50
2017-08-15T06:18:59.651Z,17.70
2017-08-15T06:21:27.319Z,17.80
2017-08-15T06:23:54.959Z,17.90
2017-08-15T06:26:22.583Z,18.10
2017-08-15T06:28:51.579Z,18.20
2017-08-15T06:31:19.984Z,18.70
2017-08-15T06:33:47.571Z,18.70
2017-08-15T06:36:15.217Z,19.00
2017-08-15T06:38:42.864Z,19.30
2017-08-15T06:41:10.521Z,19.60
2017-08-15T06:43:38.470Z,19.80
2017-08-15T06:46:06.096Z,20.00
2017-08-15T06:48:33.724Z,20.20
2017-08-15T06:51:01.783Z,20.30
2017-08-15T06:53:29.391Z,20.40
2017-08-15T06:55:57.932Z,20.60
2017-08-15T06:58:26.965Z,20.60
2017-08-15T07:00:54.728Z,20.70
2017-08-15T07:03:22.422Z,20.90
2017-08-15T07:05:50.064Z,21.00
2017-08-15T07:08:18.824Z,21.30
2017-08-15T07:10:47.409Z,21.50
2017-08-15T07:13:15.105Z,21.50
2017-08-15T07:15:43.950Z,21.90
2017-08-15T07:18:11.589Z,21.80
2017-08-15T07:20:39.232Z,22.00
2017-08-15T07:23:06.913Z,22.20
2017-08-15T07:25:34.536Z,22.40
2017-08-15T07:28:02.143Z,22.70
2017-08-15T07:30:29.757Z,23.20
2017-08-15T07:32:57.367Z,24.30
2017-08-15T07:35:25.317Z,25.50
2017-08-15T07:37:52.918Z,26.80
2017-08-15T07:40:21.289Z,29.00
2017-08-15T07:42:49.142Z,29.00
2017-08-15T07:45:16.791Z,30.10
2017-08-15T07:47:44.411Z,30.70
2017-08-15T07:50:12.859Z,31.30
2017-08-15T07:52:40.441Z,31.80
2017-08-15T07:55:08.044Z,32.40
2017-08-15T07:57:35.644Z,33.00
2017-08-15T08:00:03.290Z,33.90
2017-08-15T08:02:30.926Z,34.50
2017-08-15T08:04:59.297Z,35.60
2017-08-15T08:07:26.885Z,35.50
2017-08-15T08:09:54.502Z,35.90
2017-08-15T08:12:23.049Z,35.30
2017-08-15T08:14:50.745Z,35.50
2017-08-15T08:17:18.734Z,35.30
2017-08-15T08:19:46.336Z,34.90
2017-08-15T08:22:14.770Z,34.50
2017-08-15T08:24:42.379Z,34.50
2017-08-15T08:27:10.733Z,34.30
2017-08-15T08:29:38.344Z,34.20
2017-08-15T08:32:05.944Z,34.10
2017-08-15T08:34:33.537Z,34.20
2017-08-15T08:37:01.140Z,34.40
2017-08-15T08:39:28.843Z,34.20
2017-08-15T08:41:56.484Z,34.40
2017-08-15T08:44:24.055Z,35.00
2017-08-15T08:46:51.645Z,35.80
2017-08-15T08:49:19.242Z,35.30
2017-08-15T08:51:47.625Z,34.90
2017-08-15T08:54:15.224Z,34.90
2017-08-15T08:56:43.851Z,35.20
2017-08-15T08:59:11.483Z,36.10
2017-08-15T09:01:39.115Z,36.20
2017-08-15T09:04:06.734Z,36.20
2017-08-15T09:06:34.309Z,36.30
2017-08-15T09:09:01.923Z,36.40
2017-08-15T09:11:30.314Z,37.30
2017-08-15T09:13:58.719Z,37.20
2017-08-15T09:16:26.420Z,37.10
2017-08-15T09:18:54.028Z,37.30
2017-08-15T09:21:22.857Z,37.90
2017-08-15T09:23:50.458Z,37.80
2017-08-15T09:26:18.097Z,38.10
2017-08-15T09:28:51.445Z,37.60
2017-08-15T09:31:19.131Z,37.10
2017-08-15T09:33:47.102Z,36.70
2017-08-15T09:36:14.723Z,37.20
2017-08-15T09:38:42.344Z,37.40
2017-08-15T09:41:09.941Z,37.60
2017-08-15T09:43:37.583Z,38.00
2017-08-15T09:46:05.195Z,38.30
2017-08-15T09:48:33.769Z,38.60
2017-08-15T09:51:02.162Z,37.90
2017-08-15T09:53:29.754Z,37.80
2017-08-15T09:55:58.560Z,37.30
2017-08-15T09:58:32.464Z,37.20
2017-08-15T10:01:01.311Z,37.40
2017-08-15T10:03:29.116Z,37.40
2017-08-15T10:05:57.282Z,37.50
2017-08-15T10:08:25.358Z,37.80
2017-08-15T10:10:53.001Z,37.80
2017-08-15T10:13:20.685Z,37.40
2017-08-15T10:15:48.610Z,37.50
2017-08-15T10:18:16.385Z,37.80
2017-08-15T10:20:44.181Z,37.60
2017-08-15T10:23:11.846Z,37.80
2017-08-15T10:25:39.479Z,38.10
2017-08-15T10:28:07.922Z,38.20
2017-08-15T10:30:36.698Z,38.10
2017-08-15T10:33:04.319Z,37.70
2017-08-15T10:35:32.190Z,37.80
2017-08-15T10:38:00.014Z,37.80
2017-08-15T10:40:27.839Z,38.00
2017-08-15T10:42:56.077Z,38.90
2017-08-15T10:45:23.789Z,39.50
2017-08-15T10:47:51.412Z,39.10
2017-08-15T10:50:19.819Z,39.00
2017-08-15T10:52:47.415Z,39.00
2017-08-15T10:55:15.043Z,39.80
2017-08-15T10:57:42.756Z,40.00
2017-08-15T11:00:10.736Z,39.40
2017-08-15T11:02:40.278Z,38.80
2017-08-15T11:05:09.363Z,39.00
2017-08-15T11:07:38.221Z,39.70
2017-08-15T11:10:06.588Z,39.60
2017-08-15T11:12:34.513Z,40.00
2017-08-15T11:15:02.128Z,40.40
2017-08-15T11:17:30.840Z,40.60
2017-08-15T11:19:59.146Z,41.10
2017-08-15T11:22:26.790Z,40.80
2017-08-15T11:24:54.474Z,39.90
2017-08-15T11:27:22.082Z,40.30
2017-08-15T11:29:49.707Z,40.50
2017-08-15T11:32:19.538Z,41.00
2017-08-15T11:34:47.821Z,40.80
2017-08-15T11:37:16.902Z,39.10
2017-08-15T11:39:45.182Z,39.10
2017-08-15T11:42:12.936Z,38.80
2017-08-15T11:44:50.074Z,39.50
2017-08-15T11:47:18.712Z,40.80
2017-08-15T11:49:46.422Z,40.80
2017-08-15T11:52:15.306Z,40.50
2017-08-15T11:54:43.683Z,39.90
2017-08-15T11:57:11.270Z,39.90
2017-08-15T11:59:41.189Z,39.50
2017-08-15T12:02:09.036Z,39.50
2017-08-15T12:04:36.872Z,39.10
2017-08-15T12:07:04.539Z,38.80
2017-08-15T12:09:32.215Z,39.20
2017-08-15T12:12:00.135Z,39.40
2017-08-15T12:14:29.083Z,39.00
2017-08-15T12:16:57.261Z,39.00
2017-08-15T12:19:24.935Z,38.30
2017-08-15T12:21:52.579Z,38.30
2017-08-15T12:24:22.541Z,39.10
2017-08-15T12:26:50.253Z,39.50
2017-08-15T12:29:18.231Z,39.40
2017-08-15T12:31:46.200Z,38.70
2017-08-15T12:34:13.854Z,38.70
2017-08-15T12:36:43.232Z,38.00
2017-08-15T12:39:10.834Z,37.90
2017-08-15T12:41:38.745Z,38.10
2017-08-15T12:44:06.502Z,37.50
2017-08-15T12:46:34.153Z,37.50
2017-08-15T12:49:02.055Z,36.90
2017-08-15T12:51:29.650Z,36.80
2017-08-15T12:53:57.356Z,37.00
2017-08-15T12:56:24.953Z,37.60
2017-08-15T12:58:52.987Z,38.30
2017-08-15T13:01:20.599Z,38.50
2017-08-15T13:03:48.203Z,38.80
2017-08-15T13:06:15.937Z,38.60
2017-08-15T13:08:43.677Z,38.80
2017-08-15T13:11:11.291Z,38.60
2017-08-15T13:13:38.890Z,38.40
2017-08-15T13:16:06.525Z,38.30
2017-08-15T13:18:34.907Z,38.20
2017-08-15T13:21:02.507Z,38.20
2017-08-15T13:23:30.908Z,38.70
2017-08-15T13:25:59.431Z,38.70
2017-08-15T13:28:28.195Z,39.50
2017-08-15T13:30:56.100Z,39.50
2017-08-15T13:33:23.684Z,39.90
2017-08-15T13:35:52.054Z,38.90
2017-08-15T13:38:19.708Z,38.90
2017-08-15T13:40:47.557Z,39.40
2017-08-15T13:43:15.183Z,39.20
2017-08-15T13:45:46.326Z,38.80
2017-08-15T13:48:13.935Z,38.30
2017-08-15T13:50:41.941Z,37.70
2017-08-15T13:53:09.726Z,37.30
2017-08-15T13:55:38.205Z,36.90
2017-08-15T13:58:05.807Z,36.90
2017-08-15T14:00:34.196Z,37.00
2017-08-15T14:03:01.781Z,37.00
2017-08-15T14:05:29.695Z,37.10
2017-08-15T14:07:57.257Z,37.70
2017-08-15T14:10:24.882Z,37.90
2017-08-15T14:12:52.515Z,38.70
2017-08-15T14:15:20.895Z,37.20
2017-08-15T14:17:48.741Z,37.10
2017-08-15T14:20:16.474Z,37.20
2017-08-15T14:22:44.082Z,37.30
2017-08-15T14:25:11.750Z,37.70
2017-08-15T14:27:39.366Z,38.20
2017-08-15T14:30:07.284Z,38.60
2017-08-15T14:32:35.263Z,39.50
2017-08-15T14:35:02.843Z,39.60
2017-08-15T14:37:30.495Z,39.30
2017-08-15T14:39:58.427Z,38.90
2017-08-15T14:42:26.051Z,39.30
2017-08-15T14:44:54.462Z,40.00
2017-08-15T14:47:22.089Z,40.00
2017-08-15T14:49:49.703Z,39.90
2017-08-15T14:52:17.606Z,39.50
2017-08-15T14:54:45.206Z,38.30
2017-08-15T14:57:12.789Z,37.60
2017-08-15T14:59:41.160Z,37.90
2017-08-15T15:02:09.611Z,38.30
2017-08-15T15:04:37.234Z,38.40
2017-08-15T15:07:04.852Z,39.60
2017-08-15T15:09:32.483Z,40.00
2017-08-15T15:12:00.127Z,39.90
2017-08-15T15:14:27.903Z,40.10
2017-08-15T15:16:55.502Z,39.70
2017-08-15T15:19:23.071Z,39.70
2017-08-15T15:21:50.708Z,39.90
2017-08-15T15:24:18.332Z,40.20
2017-08-15T15:26:45.955Z,40.00
2017-08-15T15:29:13.589Z,40.00
2017-08-15T15:31:43.053Z,39.50
2017-08-15T15:34:10.648Z,39.90
2017-08-15T15:36:38.276Z,39.80
2017-08-15T15:39:05.872Z,39.10
2017-08-15T15:41:37.088Z,38.80
2017-08-15T15:44:04.747Z,38.50
2017-08-15T15:46:32.343Z,38.10
2017-08-15T15:48:59.974Z,37.80
2017-08-15T15:51:27.570Z,37.40
2017-08-15T15:53:55.229Z,37.60
2017-08-15T15:56:23.202Z,37.50
2017-08-15T15:58:50.798Z,37.30
2017-08-15T16:01:20.352Z,37.30
2017-08-15T16:03:47.952Z,37.30
2017-08-15T16:06:15.542Z,38.00
2017-08-15T16:08:43.921Z,38.00
2017-08-15T16:11:11.915Z,38.00
2017-08-15T16:13:39.524Z,37.90
2017-08-15T16:16:07.136Z,38.00
2017-08-15T16:18:34.728Z,37.80
2017-08-15T16:21:02.353Z,37.90
2017-08-15T16:23:30.440Z,38.00
2017-08-15T16:25:58.832Z,37.70
2017-08-15T16:28:26.429Z,37.70
2017-08-15T16:30:54.099Z,37.60
2017-08-15T16:33:21.721Z,38.20
2017-08-15T16:35:49.352Z,37.90
2017-08-15T16:38:16.999Z,36.70
2017-08-15T16:40:44.601Z,35.60
2017-08-15T16:43:12.241Z,34.20
2017-08-15T16:45:39.839Z,33.20
2017-08-15T16:48:08.201Z,31.50
2017-08-15T16:50:35.841Z,31.40
2017-08-15T16:53:03.473Z,30.80
2017-08-15T16:55:31.084Z,30.30
2017-08-15T16:57:58.706Z,30.10
2017-08-15T17:00:26.318Z,29.70
2017-08-15T17:02:53.920Z,29.50
2017-08-15T17:05:21.528Z,29.20
2017-08-15T17:07:49.134Z,29.00
2017-08-15T17:10:16.718Z,28.70
2017-08-15T17:12:44.299Z,28.40
2017-08-15T17:15:12.674Z,27.90
2017-08-15T17:17:41.540Z,27.80
2017-08-15T17:20:09.218Z,27.70
2017-08-15T17:22:36.850Z,27.50
2017-08-15T17:25:04.432Z,27.20
2017-08-15T17:27:32.083Z,26.90
2017-08-15T17:29:59.702Z,26.80
2017-08-15T17:32:28.091Z,26.60
2017-08-15T17:34:56.415Z,26.40
2017-08-15T17:37:24.018Z,26.40
2017-08-15T17:39:52.415Z,26.10
2017-08-15T17:42:20.398Z,26.10
2017-08-15T17:44:48.009Z,26.00
2017-08-15T17:47:15.654Z,25.80
2017-08-15T17:49:43.262Z,25.60
2017-08-15T17:52:10.863Z,25.40
2017-08-15T17:54:39.288Z,25.00
2017-08-15T17:57:06.932Z,24.90
2017-08-15T17:59:34.541Z,24.80
2017-08-15T18:02:02.490Z,24.60
2017-08-15T18:04:31.101Z,24.40
2017-08-15T18:06:58.701Z,24.20
2017-08-15T18:09:27.138Z,24.00
2017-08-15T18:11:54.850Z,24.00
2017-08-15T18:14:22.467Z,24.00
2017-08-15T18:16:50.505Z,23.90
2017-08-15T18:19:18.092Z,23.80
2017-08-15T18:21:45.668Z,23.70
2017-08-15T18:24:13.731Z,23.50
2017-08-15T18:26:41.948Z,23.30
2017-08-15T18:29:10.945Z,23.20
2017-08-15T18:31:39.361Z,23.00
2017-08-15T18:34:06.977Z,23.00
2017-08-15T18:36:34.593Z,22.90
2017-08-15T18:39:03.495Z,22.50
2017-08-15T18:44:13.233Z,22.40
2017-08-15T18:46:40.850Z,22.40
2017-08-15T18:49:08.474Z,22.40
2017-08-15T18:51:36.883Z,22.30
2017-08-15T18:54:04.632Z,22.30
2017-08-15T18:56:33.763Z,22.20
2017-08-15T18:59:01.386Z,22.20
2017-08-15T19:01:29.786Z,22.10
2017-08-15T19:03:57.364Z,22.10
2017-08-15T19:06:24.956Z,22.00
2017-08-15T19:08:52.933Z,21.90
2017-08-15T19:11:21.526Z,21.80
2017-08-15T19:13:49.149Z,21.70
2017-08-15T19:16:17.009Z,21.70
2017-08-15T19:18:45.407Z,21.60
2017-08-15T19:21:13.610Z,21.60
2017-08-15T19:23:41.239Z,21.60
2017-08-15T19:26:10.552Z,21.50
2017-08-15T19:28:38.213Z,21.50
2017-08-15T19:31:05.840Z,21.50
2017-08-15T19:33:33.499Z,21.50
2017-08-15T19:36:01.232Z,21.50
2017-08-15T19:38:29.323Z,21.50
2017-08-15T19:40:57.575Z,21.50
2017-08-15T19:43:26.211Z,21.40
2017-08-15T19:45:53.879Z,21.40
2017-08-15T19:48:21.473Z,21.30
2017-08-15T19:50:49.077Z,21.30
2017-08-15T19:53:17.170Z,21.20
2017-08-15T19:55:44.975Z,21.10
2017-08-15T19:58:12.617Z,21.10
2017-08-15T20:00:40.214Z,21.10
2017-08-15T20:03:07.823Z,21.00
2017-08-15T20:05:35.824Z,20.90
2017-08-15T20:08:03.429Z,20.90
2017-08-15T20:10:31.050Z,20.70
2017-08-15T20:12:59.111Z,20.70
2017-08-15T20:15:26.808Z,20.60
2017-08-15T20:17:54.418Z,20.60
2017-08-15T20:20:22.063Z,20.50
2017-08-15T20:22:49.673Z,20.50
2017-08-15T20:25:17.447Z,20.40
2017-08-15T20:27:45.064Z,20.50
2017-08-15T20:30:13.007Z,20.50
2017-08-15T20:32:40.648Z,20.60
2017-08-15T20:35:08.289Z,20.60
2017-08-15T20:37:36.824Z,20.60
2017-08-15T20:40:04.565Z,20.50
2017-08-15T20:42:32.208Z,20.50
2017-08-15T20:44:59.828Z,20.60
2017-08-15T20:47:27.468Z,20.60
2017-08-15T20:49:55.098Z,20.50
2017-08-15T20:52:22.716Z,20.50
2017-08-15T20:54:50.339Z,20.60
2017-08-15T20:57:19.724Z,20.70
2017-08-15T20:59:47.328Z,20.60
2017-08-15T21:02:20.401Z,20.60
2017-08-15T21:04:48.827Z,20.50
2017-08-15T21:07:16.470Z,20.60
2017-08-15T21:09:44.095Z,20.40
2017-08-15T21:12:11.939Z,20.30
2017-08-15T21:14:40.328Z,20.00
2017-08-15T21:17:08.309Z,19.90
2017-08-15T21:19:35.977Z,20.00
2017-08-15T21:22:03.636Z,19.90
2017-08-15T21:24:31.265Z,19.80
2017-08-15T21:26:58.867Z,19.70
2017-08-15T21:29:26.479Z,19.60
2017-08-15T21:31:54.089Z,19.40
2017-08-15T21:34:22.274Z,19.30
2017-08-15T21:36:49.901Z,19.20
2017-08-15T21:39:17.988Z,19.00
2017-08-15T21:41:45.600Z,18.90
2017-08-15T21:44:13.200Z,18.80
2017-08-15T21:46:41.574Z,18.60
2017-08-15T21:49:09.946Z,18.60
2017-08-15T21:51:38.588Z,18.60
2017-08-15T21:54:06.218Z,18.60
2017-08-15T21:56:34.588Z,18.60
2017-08-15T21:59:03.043Z,18.60
2017-08-15T22:01:36.243Z,18.60
2017-08-15T22:04:04.754Z,18.60
2017-08-15T22:06:32.353Z,18.60
2017-08-15T22:08:59.968Z,18.50
2017-08-15T22:11:27.611Z,18.50
2017-08-15T22:13:55.196Z,18.50
2017-08-15T22:16:22.818Z,18.50
2017-08-15T22:18:50.402Z,18.50
2017-08-15T22:21:17.998Z,18.50
2017-08-15T22:23:45.606Z,18.50
2017-08-15T22:26:14.403Z,18.50
2017-08-15T22:28:42.016Z,18.50
2017-08-15T22:31:09.616Z,18.50
2017-08-15T22:33:37.990Z,18.50
2017-08-15T22:36:06.359Z,18.40
2017-08-15T22:38:33.982Z,18.40
2017-08-15T22:41:01.608Z,18.40
2017-08-15T22:43:29.990Z,18.40
2017-08-15T22:45:58.541Z,18.30
2017-08-15T22:48:26.138Z,18.30
2017-08-15T22:50:54.549Z,18.40
2017-08-15T22:53:22.140Z,18.40
2017-08-15T22:55:49.825Z,18.40
2017-08-15T22:58:17.425Z,18.40
2017-08-15T23:00:45.804Z,18.30
2017-08-15T23:03:13.908Z,18.30
2017-08-15T23:05:41.985Z,18.20
2017-08-15T23:08:09.570Z,18.20
2017-08-15T23:10:38.182Z,18.10
2017-08-15T23:13:05.814Z,18.10
2017-08-15T23:15:33.425Z,18.10
2017-08-15T23:18:01.472Z,18.00
2017-08-15T23:20:29.470Z,17.90
2017-08-15T23:22:57.084Z,17.90
2017-08-15T23:25:24.783Z,17.90
2017-08-15T23:27:52.397Z,17.90
2017-08-15T23:30:20.781Z,17.90
2017-08-15T23:32:48.407Z,17.90
2017-08-15T23:35:16.376Z,17.90
2017-08-15T23:37:44.326Z,17.90
2017-08-15T23:40:11.939Z,17.90
2017-08-15T23:42:39.515Z,17.90
2017-08-15T23:45:07.212Z,17.90
2017-08-15T23:47:34.809Z,17.90
2017-08-15T23:50:02.522Z,17.90
2017-08-15T23:52:30.898Z,17.90
2017-08-15T23:54:58.528Z,17.90
2017-08-15T23:57:26.152Z,17.90
2017-08-15T23:59:53.739Z,17.90
